Emporia, KS

7:01 AM CST on February 06, 2016 (GMT -0600)
Emporia Municipal | | Change Station
CLOSE
Current Station
Airport
Location: Emporia,
Elevation: 1207 ft
Nearby Weather Stations

Elev 1207 ft 38.33 °N, 96.19 °W | Updated 8 minutes ago

Clear
Clear
25 °F
Feels Like 17 °F
N
7
Wind Variable Wind from West

Today
High -- | Low -- °F
--% Chance of Precip.
Yesterday
High -- | Low -- °F
Precip. -- in
Pressure 30.34 in
Visibility 9.0 miles
Clouds Clear
Windchill 17 °F
Dew Point 23 °F
Humidity 92%
Rainfall 0.00 in
Snow Depth Not available.
7:25 AM 5:52 PM
Waning Crescent, 6% visible
METAR KEMP 061253Z AUTO 28006KT 9SM CLR M04/M05 A3029 RMK AO2 SLP272 T10391050
Pressure 30.34 in
Visibility 9.0 miles
Clouds Clear
Windchill 17 °F
Dew Point 23 °F
Humidity 92%
Rainfall 0.00 in
Snow Depth Not available.
7:25 AM 5:52 PM
Waning Crescent, 6% visible
METAR KEMP 061253Z AUTO 28006KT 9SM CLR M04/M05 A3029 RMK AO2 SLP272 T10391050

10-Day Weather Forecast

Almanac

Astronomy

Feb. 06, 2016 Rise Set
Actual Time
Civil Twilight
Nautical Twilight
Astronomical Twilight
Moon
Length of Visible Light
Length of Day
Tomorrow will be .
, % of the Moon is Illuminated

Today's Extremes

State Highs State Lows

Community

WunderPhotos

Upload Photos

1,890,958 photos uploaded!

WunderBlog® & News

Nearby

Air Quality

  Air Quality AQ Index Pollutant
Not available.

Snow Depth

Station Depth Elevation

Earthquake Activity

City Distance Mag. Time & Date
Minimum magnitude displayed is 2.5.

Coastal Water Temperatures

Place Temperature

Stations

Nearby Weather Stations

Station Location Temp. Windchill Dew Point Humidity Wind Precip. Elev Updated Type
                   

Watches & Warnings

There are currently no watches in effect.